Time;durP1;ratioP1;P1;durP2;ratioP2;P2;SDS_P1;SDS_P2;PMS_P1;PMS_P2;Temp;Humidity;BMP_temperature;BMP_pressure;BME280_temperature;BME280_humidity;BME280_pressure;Samples;Min_cycle;Max_cycle;Signal;HPM_P1;HPM_P2
2021/08/10 00:00:39;;;;;;;4.10;1.67;;;18.30;99.90;;;;;;5029352;28;20263;-70
2021/08/10 00:03:05;;;;;;;1.70;1.60;;;18.40;99.90;;;;;;5029446;28;20262;-70
2021/08/10 00:05:32;;;;;;;1.83;1.70;;;18.30;99.90;;;;;;5029470;28;20245;-70
2021/08/10 00:07:59;;;;;;;3.83;1.80;;;18.30;99.90;;;;;;5029191;28;20264;-70
2021/08/10 00:10:25;;;;;;;2.07;1.90;;;18.30;99.90;;;;;;5029247;28;20236;-70
2021/08/10 00:12:52;;;;;;;2.20;2.00;;;18.30;99.90;;;;;;5028975;28;20216;-70
2021/08/10 00:15:19;;;;;;;2.10;1.90;;;18.30;99.90;;;;;;5028735;28;20205;-70
2021/08/10 00:17:47;;;;;;;2.40;1.63;;;18.30;99.90;;;;;;5028863;28;20205;-70
2021/08/10 00:20:14;;;;;;;2.00;1.80;;;18.20;99.90;;;;;;5029105;28;20270;-70
2021/08/10 00:22:41;;;;;;;2.50;1.90;;;18.30;99.90;;;;;;5028702;28;20236;-70
2021/08/10 00:25:08;;;;;;;2.30;2.20;;;18.30;99.90;;;;;;5028698;28;20256;-70
2021/08/10 00:27:35;;;;;;;2.00;1.90;;;18.30;99.90;;;;;;5029012;28;20232;-70
2021/08/10 00:30:02;;;;;;;1.77;1.67;;;18.30;99.90;;;;;;5028415;28;20233;-70
2021/08/10 00:32:28;;;;;;;3.43;1.60;;;18.30;99.90;;;;;;5028704;28;20589;-70
2021/08/10 00:34:57;;;;;;;2.40;1.90;;;18.20;99.90;;;;;;5028557;28;20205;-70
2021/08/10 00:37:24;;;;;;;2.50;2.00;;;18.20;99.90;;;;;;5028710;28;20228;-70
2021/08/10 00:39:50;;;;;;;2.43;1.80;;;18.20;99.90;;;;;;5028242;28;20718;-70
2021/08/10 00:42:17;;;;;;;2.10;1.83;;;18.20;99.90;;;;;;5028529;28;20294;-70
2021/08/10 00:44:44;;;;;;;2.17;1.90;;;18.20;99.90;;;;;;5028111;28;20660;-70
2021/08/10 00:47:11;;;;;;;1.87;1.73;;;18.20;99.90;;;;;;5028716;28;20286;-70
2021/08/10 00:49:37;;;;;;;2.87;2.33;;;18.20;99.90;;;;;;5028522;28;20228;-70
2021/08/10 00:52:06;;;;;;;2.30;2.20;;;18.10;99.90;;;;;;5028634;28;20247;-70
2021/08/10 00:54:33;;;;;;;2.13;2.03;;;18.20;99.90;;;;;;5028084;28;20231;-70
2021/08/10 00:57:00;;;;;;;3.93;2.10;;;18.10;99.90;;;;;;5028403;28;20209;-70
2021/08/10 00:59:27;;;;;;;3.00;1.97;;;18.10;99.90;;;;;;5028272;28;20232;-70
2021/08/10 01:01:53;;;;;;;2.40;2.10;;;18.10;99.90;;;;;;5027983;28;20792;-70
2021/08/10 01:04:20;;;;;;;2.07;1.90;;;18.10;99.90;;;;;;5028396;28;20278;-70
2021/08/10 01:06:55;;;;;;;2.20;2.00;;;18.00;99.90;;;;;;5028412;28;20212;-70
2021/08/10 01:09:33;;;;;;;2.30;2.13;;;18.00;99.90;;;;;;5028188;28;20216;-70
2021/08/10 01:12:06;;;;;;;2.00;1.90;;;18.00;99.90;;;;;;5027852;28;20259;-70
2021/08/10 01:14:44;;;;;;;2.43;2.17;;;18.00;99.90;;;;;;5028196;28;20204;-70
2021/08/10 01:17:20;;;;;;;2.20;2.10;;;18.00;99.90;;;;;;5028118;28;20239;-70
2021/08/10 01:20:29;;;;;;;3.20;1.90;;;18.00;99.90;;;;;;5027857;28;20666;-70
2021/08/10 01:22:57;;;;;;;2.60;2.37;;;18.00;99.90;;;;;;4966574;28;20231;-70
2021/08/10 01:25:34;;;;;;;2.93;2.50;;;18.00;99.90;;;;;;5019162;28;20251;-70
2021/08/10 01:28:29;;;;;;;2.83;2.23;;;17.90;99.90;;;;;;5030554;28;20560;-70
2021/08/10 01:31:12;;;;;;;2.50;2.33;;;17.90;99.90;;;;;;5032234;28;20201;-70
2021/08/10 01:33:42;;;;;;;3.17;2.50;;;17.90;99.90;;;;;;5032058;28;20197;-70
2021/08/10 01:36:11;;;;;;;2.50;2.40;;;17.90;99.90;;;;;;5032115;28;20255;-70
2021/08/10 01:38:40;;;;;;;3.10;2.30;;;17.90;99.90;;;;;;5031772;28;20584;-70
2021/08/10 01:41:07;;;;;;;2.70;2.53;;;17.90;99.90;;;;;;5031855;28;20205;-70
2021/08/10 01:43:35;;;;;;;2.60;2.40;;;17.90;99.90;;;;;;5031751;28;20683;-70
2021/08/10 01:46:02;;;;;;;3.20;2.50;;;18.00;99.90;;;;;;5031734;28;20961;-70
2021/08/10 01:48:30;;;;;;;2.80;2.53;;;17.90;99.90;;;;;;5031704;28;20571;-70
2021/08/10 01:50:58;;;;;;;3.33;2.53;;;17.90;99.90;;;;;;5031614;28;20262;-70
2021/08/10 01:53:26;;;;;;;4.23;2.50;;;17.90;99.90;;;;;;5031600;28;20204;-70
2021/08/10 01:55:56;;;;;;;3.27;2.47;;;17.90;99.90;;;;;;5031382;28;20621;-70
2021/08/10 01:58:24;;;;;;;3.20;2.40;;;17.70;99.90;;;;;;5031258;28;20993;-70
2021/08/10 02:00:52;;;;;;;4.50;2.47;;;17.40;99.90;;;;;;5031581;28;20224;-70
2021/08/10 02:03:19;;;;;;;2.93;2.63;;;17.20;99.90;;;;;;5031532;28;20205;-70
2021/08/10 02:05:48;;;;;;;2.70;2.50;;;17.30;99.90;;;;;;5031460;28;20236;-70
2021/08/10 02:08:16;;;;;;;2.77;2.57;;;17.40;99.90;;;;;;5031491;28;20216;-70
2021/08/10 02:10:45;;;;;;;2.73;2.53;;;17.50;99.90;;;;;;5030969;28;20664;-70
2021/08/10 02:13:14;;;;;;;3.43;2.27;;;17.60;99.90;;;;;;5031311;28;20259;-71
2021/08/10 02:15:43;;;;;;;4.40;2.23;;;17.60;99.90;;;;;;5031091;28;20675;-70
2021/08/10 02:18:10;;;;;;;2.57;2.20;;;17.70;99.90;;;;;;5031294;28;20212;-70
2021/08/10 02:20:41;;;;;;;2.73;2.50;;;17.40;99.90;;;;;;5031310;28;20212;-70
2021/08/10 02:23:12;;;;;;;3.03;2.63;;;17.20;99.90;;;;;;5031126;28;20257;-70
2021/08/10 02:25:42;;;;;;;3.07;2.43;;;16.90;99.90;;;;;;5031146;28;20256;-70
2021/08/10 02:28:09;;;;;;;2.83;2.40;;;17.00;99.90;;;;;;5031295;28;20201;-70
2021/08/10 02:30:40;;;;;;;3.17;2.17;;;16.80;99.90;;;;;;5031124;28;20260;-70
2021/08/10 02:33:10;;;;;;;2.50;2.30;;;16.90;99.90;;;;;;5030978;28;20227;-70
2021/08/10 02:35:38;;;;;;;5.17;2.80;;;17.00;99.90;;;;;;5030933;28;20198;-70
2021/08/10 02:38:08;;;;;;;2.30;2.20;;;17.10;99.90;;;;;;5030804;28;20204;-70
2021/08/10 02:40:37;;;;;;;4.13;2.50;;;17.30;99.90;;;;;;5030415;28;20789;-70
2021/08/10 02:43:05;;;;;;;2.50;2.30;;;17.30;99.90;;;;;;5030819;28;20630;-70
2021/08/10 02:45:34;;;;;;;2.43;2.20;;;17.40;99.90;;;;;;5030939;28;20237;-70
2021/08/10 02:48:01;;;;;;;2.33;2.13;;;17.50;99.90;;;;;;5030703;28;20208;-70
2021/08/10 02:50:31;;;;;;;3.17;1.90;;;17.50;99.90;;;;;;5030719;28;20232;-70
2021/08/10 02:52:57;;;;;;;5.13;2.37;;;17.20;99.90;;;;;;5030630;28;20465;-70
2021/08/10 02:55:25;;;;;;;4.53;2.30;;;17.10;99.90;;;;;;5030711;28;20201;-70
2021/08/10 02:58:00;;;;;;;2.50;2.27;;;17.00;99.90;;;;;;5030421;28;20568;-70
2021/08/10 03:00:29;;;;;;;3.27;2.40;;;17.10;99.90;;;;;;5030052;28;20633;-70
2021/08/10 03:03:00;;;;;;;2.00;1.90;;;17.20;99.90;;;;;;5030461;28;20262;-70
2021/08/10 03:05:29;;;;;;;2.67;2.40;;;17.20;99.90;;;;;;5030370;28;20647;-70
2021/08/10 03:07:58;;;;;;;3.10;2.20;;;17.10;99.90;;;;;;5030236;28;20263;-70
2021/08/10 03:10:28;;;;;;;3.10;2.30;;;17.20;99.90;;;;;;5030322;28;20260;-70
2021/08/10 03:12:59;;;;;;;2.47;2.13;;;17.20;99.90;;;;;;5030139;28;20240;-70
2021/08/10 03:15:28;;;;;;;3.40;2.70;;;17.20;99.90;;;;;;5030385;28;20243;-70
2021/08/10 03:17:58;;;;;;;3.40;2.50;;;17.20;99.90;;;;;;5030053;28;20263;-70
2021/08/10 03:20:25;;;;;;;4.27;2.60;;;17.30;99.90;;;;;;5030256;28;20348;-70
2021/08/10 03:22:53;;;;;;;2.30;1.90;;;17.40;99.90;;;;;;5029535;28;20749;-70
2021/08/10 03:25:23;;;;;;;2.70;2.50;;;17.40;99.90;;;;;;5029934;28;20229;-70
2021/08/10 03:27:52;;;;;;;2.50;2.10;;;17.40;99.90;;;;;;5029694;28;20208;-70
2021/08/10 03:30:20;;;;;;;2.60;2.10;;;17.40;99.90;;;;;;5029870;28;20319;-70
2021/08/10 03:32:50;;;;;;;2.43;2.20;;;17.50;99.90;;;;;;5029871;28;20342;-70
2021/08/10 03:35:17;;;;;;;3.33;1.77;;;17.50;99.90;;;;;;5029745;28;20647;-70
2021/08/10 03:37:45;;;;;;;2.47;2.27;;;17.60;99.90;;;;;;5029599;28;20671;-70
2021/08/10 03:40:13;;;;;;;3.53;2.43;;;17.50;99.90;;;;;;5029713;28;20258;-70
2021/08/10 03:42:41;;;;;;;2.67;2.43;;;17.50;99.90;;;;;;5029615;28;20205;-70
2021/08/10 03:45:08;;;;;;;2.60;2.40;;;17.40;99.90;;;;;;5029559;28;20224;-70
2021/08/10 03:47:38;;;;;;;2.60;2.40;;;17.50;99.90;;;;;;5029673;28;20680;-70
2021/08/10 03:50:06;;;;;;;2.80;2.27;;;17.50;99.90;;;;;;5028836;28;20283;-70
2021/08/10 03:52:33;;;;;;;2.30;2.10;;;17.50;99.90;;;;;;5028842;28;20731;-70
2021/08/10 03:55:01;;;;;;;3.50;2.57;;;17.50;99.90;;;;;;5029417;28;20605;-70
2021/08/10 03:57:30;;;;;;;3.27;2.03;;;17.40;99.90;;;;;;5029535;28;20290;-70
2021/08/10 03:59:59;;;;;;;5.47;2.37;;;17.40;99.90;;;;;;5028774;28;20734;-70
2021/08/10 04:02:26;;;;;;;2.30;2.10;;;17.20;99.90;;;;;;5029590;28;20251;-70
2021/08/10 04:04:56;;;;;;;3.07;2.40;;;17.20;99.90;;;;;;5029255;28;20294;-70
2021/08/10 04:07:23;;;;;;;2.43;2.23;;;17.10;99.90;;;;;;5028967;28;20683;-70
2021/08/10 04:09:50;;;;;;;2.37;2.17;;;17.10;99.90;;;;;;5029089;28;20599;-70
2021/08/10 04:12:17;;;;;;;7.00;2.70;;;17.20;99.90;;;;;;5029441;28;20255;-70
2021/08/10 04:14:44;;;;;;;2.93;2.67;;;17.00;99.90;;;;;;5029219;28;20279;-70
2021/08/10 04:17:11;;;;;;;3.03;2.80;;;16.90;99.90;;;;;;5029141;28;20561;-70
2021/08/10 04:19:45;;;;;;;2.43;2.20;;;16.90;99.90;;;;;;5029067;28;20303;-70
2021/08/10 04:22:14;;;;;;;4.37;2.40;;;16.80;99.90;;;;;;5029149;28;20306;-70
2021/08/10 04:24:41;;;;;;;3.07;2.50;;;16.80;99.90;;;;;;5028902;28;20233;-70
2021/08/10 04:27:07;;;;;;;2.47;2.20;;;16.80;99.90;;;;;;5028871;28;20208;-70
2021/08/10 04:29:34;;;;;;;2.67;2.43;;;16.70;99.90;;;;;;5028854;28;20274;-69
2021/08/10 04:32:00;;;;;;;2.67;2.30;;;16.70;99.90;;;;;;5029003;28;20247;-70
2021/08/10 04:34:27;;;;;;;2.33;2.10;;;16.60;99.90;;;;;;5028827;28;20262;-70
2021/08/10 04:36:54;;;;;;;2.20;2.10;;;16.60;99.90;;;;;;5028421;28;20810;-70
2021/08/10 04:39:23;;;;;;;2.70;2.37;;;16.70;99.90;;;;;;5028785;28;20209;-70
2021/08/10 04:41:50;;;;;;;4.97;2.53;;;16.70;99.90;;;;;;5028236;28;20212;-70
2021/08/10 04:44:16;;;;;;;2.70;2.27;;;16.60;99.90;;;;;;5028470;28;20232;-70
2021/08/10 04:46:43;;;;;;;4.63;2.50;;;16.60;99.90;;;;;;5028765;28;20274;-70
2021/08/10 04:49:09;;;;;;;3.47;2.60;;;16.70;99.90;;;;;;5028512;28;20247;-70
2021/08/10 04:51:36;;;;;;;2.90;2.60;;;16.80;99.90;;;;;;5028513;28;20212;-70
2021/08/10 04:54:03;;;;;;;2.77;2.33;;;16.80;99.90;;;;;;5028553;28;20270;-70
2021/08/10 04:56:31;;;;;;;3.83;2.60;;;17.00;99.90;;;;;;5028385;28;20286;-70
2021/08/10 04:58:57;;;;;;;2.30;2.17;;;17.10;99.90;;;;;;5028088;28;20275;-70
2021/08/10 05:01:24;;;;;;;5.03;2.60;;;17.20;99.90;;;;;;5028200;28;20233;-70
2021/08/10 05:03:51;;;;;;;2.10;2.00;;;17.20;99.90;;;;;;5028160;28;20212;-70
2021/08/10 05:06:17;;;;;;;3.10;2.20;;;17.30;99.90;;;;;;5028437;28;20204;-70
2021/08/10 05:08:44;;;;;;;2.50;2.30;;;17.40;99.90;;;;;;5028383;28;20204;-70
2021/08/10 05:11:11;;;;;;;4.00;2.50;;;17.40;99.90;;;;;;5027827;28;20719;-70
2021/08/10 05:13:40;;;;;;;4.40;2.30;;;17.40;99.90;;;;;;5028264;28;20209;-70
2021/08/10 05:16:07;;;;;;;2.50;2.30;;;17.50;99.90;;;;;;5028051;28;20817;-70
2021/08/10 05:18:34;;;;;;;2.60;2.40;;;17.60;99.90;;;;;;5028167;28;20219;-70
2021/08/10 05:21:01;;;;;;;2.80;2.60;;;17.60;99.90;;;;;;5027861;28;20219;-70
2021/08/10 05:23:28;;;;;;;2.80;2.53;;;17.60;99.90;;;;;;5028110;28;20282;-70
2021/08/10 05:25:54;;;;;;;2.60;2.40;;;17.60;99.90;;;;;;5028162;28;20229;-70
2021/08/10 05:28:21;;;;;;;2.30;2.20;;;17.70;99.90;;;;;;5028223;28;20213;-70
2021/08/10 05:30:49;;;;;;;3.23;2.60;;;17.70;99.90;;;;;;5027974;28;21037;-70
2021/08/10 05:33:16;;;;;;;2.53;2.20;;;17.70;99.90;;;;;;5028119;28;20619;-70
2021/08/10 05:35:43;;;;;;;2.50;2.30;;;17.70;99.90;;;;;;5028244;28;20213;-70
2021/08/10 05:38:10;;;;;;;3.60;2.90;;;17.70;99.90;;;;;;5028138;28;20244;-70
2021/08/10 05:40:36;;;;;;;2.77;2.50;;;17.70;99.90;;;;;;5027991;28;20241;-70
2021/08/10 05:43:03;;;;;;;4.00;2.27;;;17.70;99.90;;;;;;5027969;28;20216;-70
2021/08/10 05:45:30;;;;;;;3.07;2.50;;;17.70;99.90;;;;;;5028182;28;20201;-70
2021/08/10 05:47:58;;;;;;;3.43;2.40;;;17.70;99.90;;;;;;5027867;28;20243;-70
2021/08/10 05:50:27;;;;;;;2.67;2.03;;;17.70;99.90;;;;;;5027786;28;20314;-70
2021/08/10 05:52:54;;;;;;;2.67;2.43;;;17.80;99.90;;;;;;5028034;28;20307;-70
2021/08/10 05:55:21;;;;;;;3.57;2.50;;;17.80;99.90;;;;;;5028041;28;20209;-70
2021/08/10 05:57:47;;;;;;;3.70;2.40;;;17.80;99.90;;;;;;5027679;28;20298;-70
2021/08/10 06:00:15;;;;;;;2.60;2.23;;;17.80;99.90;;;;;;5027449;28;20245;-70
2021/08/10 06:02:41;;;;;;;4.03;2.93;;;17.80;99.90;;;;;;5027734;28;20233;-71
2021/08/10 06:05:10;;;;;;;2.40;2.20;;;17.80;99.90;;;;;;5027792;28;20232;-70
2021/08/10 06:07:37;;;;;;;3.37;2.60;;;17.80;99.90;;;;;;5027859;28;20217;-70
2021/08/10 06:10:04;;;;;;;3.23;2.40;;;17.80;99.90;;;;;;5027722;28;20251;-70
2021/08/10 06:12:32;;;;;;;3.40;2.70;;;17.80;99.90;;;;;;5027381;28;20727;-70
2021/08/10 06:14:58;;;;;;;2.60;2.40;;;17.90;99.90;;;;;;5029863;28;20277;-70
2021/08/10 06:17:25;;;;;;;2.50;2.30;;;17.90;99.90;;;;;;5031195;28;20773;-70
2021/08/10 06:19:51;;;;;;;2.43;2.33;;;17.90;99.90;;;;;;5031134;28;20205;-70
2021/08/10 06:22:19;;;;;;;2.87;2.10;;;17.90;99.90;;;;;;5031098;28;20225;-70
2021/08/10 06:24:46;;;;;;;3.67;2.67;;;18.00;99.90;;;;;;5031029;28;20220;-70
2021/08/10 06:27:13;;;;;;;4.00;2.70;;;18.00;99.90;;;;;;5030594;28;20660;-70
2021/08/10 06:29:40;;;;;;;2.50;2.30;;;18.00;99.90;;;;;;5031279;28;20204;-70
2021/08/10 06:32:07;;;;;;;2.60;2.00;;;18.00;99.90;;;;;;5030931;28;20252;-70
2021/08/10 06:34:34;;;;;;;2.53;2.37;;;18.10;99.90;;;;;;5030925;28;20300;-70
2021/08/10 06:37:00;;;;;;;3.53;2.50;;;18.10;99.90;;;;;;5031034;28;20208;-70
2021/08/10 06:39:28;;;;;;;2.70;2.17;;;18.20;99.90;;;;;;5031008;28;20240;-70
2021/08/10 06:41:55;;;;;;;3.87;2.40;;;18.20;99.90;;;;;;5030609;28;20304;-70
2021/08/10 06:44:21;;;;;;;2.67;2.30;;;18.40;99.90;;;;;;5030887;28;20219;-70
2021/08/10 06:46:48;;;;;;;2.57;2.30;;;18.40;99.90;;;;;;5030567;28;20679;-71
2021/08/10 06:49:14;;;;;;;3.67;2.37;;;18.50;99.90;;;;;;5030417;28;20632;-70
2021/08/10 06:51:41;;;;;;;3.17;2.13;;;18.50;99.90;;;;;;5030759;28;20232;-70
2021/08/10 06:54:08;;;;;;;2.90;2.37;;;18.50;99.90;;;;;;5030663;28;20271;-70
2021/08/10 06:56:36;;;;;;;2.23;2.13;;;18.60;99.90;;;;;;5030288;28;20620;-70
2021/08/10 06:59:02;;;;;;;2.60;2.30;;;18.60;99.90;;;;;;5029946;28;20671;-70
2021/08/10 07:01:29;;;;;;;2.60;2.40;;;18.70;99.90;;;;;;5030437;28;20232;-70
2021/08/10 07:03:56;;;;;;;3.90;2.37;;;18.80;99.90;;;;;;5030299;28;20675;-70
2021/08/10 07:06:23;;;;;;;4.37;2.67;;;18.80;99.90;;;;;;5030392;28;20209;-70
2021/08/10 07:08:53;;;;;;;5.20;2.40;;;18.80;99.90;;;;;;5030421;28;20205;-70
2021/08/10 07:11:20;;;;;;;6.53;2.10;;;18.90;99.90;;;;;;5029980;28;20699;-69
2021/08/10 07:13:48;;;;;;;2.70;2.50;;;18.90;99.90;;;;;;5030390;28;20213;-70
2021/08/10 07:16:15;;;;;;;2.60;2.40;;;18.90;99.90;;;;;;5030161;28;20204;-69
2021/08/10 07:18:41;;;;;;;3.30;2.27;;;19.00;99.90;;;;;;5030270;28;20200;-70
2021/08/10 07:21:08;;;;;;;2.27;2.07;;;19.00;99.90;;;;;;5029862;28;20278;-70
2021/08/10 07:23:34;;;;;;;2.43;2.03;;;19.00;99.90;;;;;;5029532;28;20979;-70
2021/08/10 07:26:01;;;;;;;3.03;2.50;;;19.00;99.90;;;;;;5029363;28;20260;-70
2021/08/10 07:28:28;;;;;;;2.40;2.30;;;19.00;99.90;;;;;;5029868;28;20236;-70
2021/08/10 07:30:56;;;;;;;2.43;2.23;;;19.00;99.90;;;;;;5029843;28;20326;-71
2021/08/10 07:33:22;;;;;;;3.60;2.33;;;19.10;99.90;;;;;;5029548;28;20300;-70
2021/08/10 07:35:49;;;;;;;3.90;2.23;;;19.10;99.90;;;;;;5029579;28;20755;-70
2021/08/10 07:38:15;;;;;;;5.13;2.40;;;19.10;99.90;;;;;;5030080;28;20209;-71
2021/08/10 07:40:42;;;;;;;2.60;2.40;;;19.10;99.90;;;;;;5029869;28;20251;-70
2021/08/10 07:43:08;;;;;;;2.60;2.40;;;19.10;99.90;;;;;;5029556;28;20236;-71
2021/08/10 07:45:35;;;;;;;3.37;2.40;;;19.10;99.90;;;;;;5029510;28;20862;-70
2021/08/10 07:48:04;;;;;;;3.43;2.33;;;19.10;99.90;;;;;;5029539;28;20204;-71
2021/08/10 07:50:31;;;;;;;2.43;2.30;;;19.20;99.90;;;;;;5029544;28;20283;-70
2021/08/10 07:52:57;;;;;;;2.70;2.50;;;19.20;99.90;;;;;;5029737;28;20208;-71
2021/08/10 07:55:24;;;;;;;3.27;2.60;;;19.20;99.90;;;;;;5029642;28;20213;-71
2021/08/10 07:57:50;;;;;;;2.57;2.37;;;19.30;99.90;;;;;;5029603;28;20576;-71
2021/08/10 08:00:18;;;;;;;2.70;2.50;;;19.30;99.90;;;;;;5028851;28;20240;-70
2021/08/10 08:02:44;;;;;;;3.30;2.57;;;19.30;99.90;;;;;;5029279;28;20209;-71
2021/08/10 08:05:12;;;;;;;2.70;2.40;;;19.30;99.90;;;;;;5029260;28;20209;-71
2021/08/10 08:07:39;;;;;;;4.60;2.60;;;19.30;99.90;;;;;;5029035;28;20208;-71
2021/08/10 08:10:07;;;;;;;2.40;2.30;;;19.30;99.90;;;;;;5029195;28;20236;-71
2021/08/10 08:12:33;;;;;;;3.87;2.63;;;19.40;99.90;;;;;;5028904;28;20268;-70
2021/08/10 08:15:00;;;;;;;2.83;2.30;;;19.30;99.90;;;;;;5029194;28;20216;-71
2021/08/10 08:17:27;;;;;;;3.67;2.57;;;19.30;99.90;;;;;;5029250;28;20244;-70
2021/08/10 08:19:53;;;;;;;3.87;2.53;;;19.30;99.90;;;;;;5029038;28;20216;-71
2021/08/10 08:22:21;;;;;;;2.80;2.60;;;19.30;99.90;;;;;;5028749;28;20260;-71
2021/08/10 08:24:48;;;;;;;6.23;2.40;;;19.30;99.90;;;;;;5028660;28;20723;-70
2021/08/10 08:27:14;;;;;;;3.93;2.37;;;19.40;99.90;;;;;;5028952;28;20602;-71
2021/08/10 08:29:41;;;;;;;2.83;2.63;;;19.40;99.90;;;;;;5028978;28;20278;-71
2021/08/10 08:32:08;;;;;;;2.67;2.33;;;19.40;99.90;;;;;;5028377;28;20776;-71
2021/08/10 08:34:35;;;;;;;4.33;2.60;;;19.40;99.90;;;;;;5028585;28;20659;-71
2021/08/10 08:37:03;;;;;;;2.50;2.20;;;19.40;99.90;;;;;;5028280;28;20270;-71
2021/08/10 08:39:31;;;;;;;2.87;2.40;;;19.50;99.90;;;;;;5028695;28;20251;-71
2021/08/10 08:41:59;;;;;;;3.00;2.70;;;19.50;99.90;;;;;;5028527;28;20240;-71
2021/08/10 08:44:26;;;;;;;4.80;2.67;;;19.50;99.90;;;;;;5028559;28;20565;-71
2021/08/10 08:46:54;;;;;;;5.03;2.70;;;19.60;99.90;;;;;;5028290;28;20801;-71
2021/08/10 08:49:23;;;;;;;2.60;2.40;;;19.60;99.90;;;;;;5028521;28;20262;-70
2021/08/10 08:51:50;;;;;;;3.03;2.60;;;19.60;99.90;;;;;;5028606;28;20242;-71
2021/08/10 08:54:17;;;;;;;5.90;2.63;;;19.60;99.90;;;;;;5028434;28;20255;-70
2021/08/10 08:56:45;;;;;;;2.57;2.37;;;19.60;99.90;;;;;;5028381;28;20618;-71
2021/08/10 08:59:12;;;;;;;2.70;2.50;;;19.60;99.90;;;;;;5028119;28;20241;-71
2021/08/10 09:01:39;;;;;;;4.27;2.50;;;19.60;99.90;;;;;;5028425;28;20216;-71
2021/08/10 09:04:07;;;;;;;2.40;2.20;;;19.60;99.90;;;;;;5028268;28;20232;-71
2021/08/10 09:06:34;;;;;;;3.23;2.90;;;19.60;99.90;;;;;;5028367;28;20207;-70
2021/08/10 09:09:19;;;;;;;2.40;2.23;;;19.60;99.90;;;;;;5028488;28;20212;-71
2021/08/10 09:11:50;;;;;;;2.93;2.73;;;19.60;99.90;;;;;;5028224;28;20224;-71
2021/08/10 09:14:17;;;;;;;3.93;2.80;;;19.70;99.90;;;;;;5024250;28;20865;-71
2021/08/10 09:17:01;;;;;;;3.50;2.60;;;19.70;99.90;;;;;;5028302;28;20355;-71
2021/08/10 09:19:42;;;;;;;4.83;3.60;;;19.70;99.90;;;;;;5028208;28;20252;-71
2021/08/10 09:22:17;;;;;;;3.30;2.87;;;19.80;99.90;;;;;;5027975;28;20634;-71
2021/08/10 09:24:45;;;;;;;6.17;2.73;;;20.00;99.90;;;;;;5028408;28;20224;-71
2021/08/10 09:27:29;;;;;;;5.23;2.20;;;20.10;99.90;;;;;;5028073;28;20200;-71
2021/08/10 09:29:56;;;;;;;2.50;2.40;;;20.30;99.90;;;;;;5027853;28;20659;-71
2021/08/10 09:32:22;;;;;;;2.77;2.57;;;20.30;99.90;;;;;;5027839;28;20232;-71
2021/08/10 09:35:16;;;;;;;3.87;2.57;;;20.40;99.90;;;;;;5028263;28;20212;-71
2021/08/10 09:37:43;;;;;;;3.20;2.23;;;20.50;99.90;;;;;;5028384;28;20216;-71
2021/08/10 09:40:27;;;;;;;2.77;2.57;;;20.50;99.90;;;;;;5028008;28;20617;-71
2021/08/10 09:42:55;;;;;;;2.70;2.50;;;20.50;99.90;;;;;;5027967;28;20292;-71
2021/08/10 09:45:22;;;;;;;2.53;2.30;;;20.60;99.90;;;;;;5027680;28;20667;-71
2021/08/10 09:47:48;;;;;;;3.43;2.40;;;20.60;99.90;;;;;;5028187;28;20243;-71
2021/08/10 09:50:16;;;;;;;4.87;2.80;;;20.70;99.90;;;;;;5030324;28;20671;-71
2021/08/10 09:52:44;;;;;;;3.03;2.70;;;20.70;99.90;;;;;;5031769;28;20229;-71
2021/08/10 09:55:13;;;;;;;4.47;2.90;;;20.70;99.90;;;;;;5031462;28;20208;-71
2021/08/10 09:57:40;;;;;;;7.23;2.80;;;20.70;99.90;;;;;;5031046;28;20696;-71
2021/08/10 10:00:10;;;;;;;3.00;2.37;;;20.70;99.90;;;;;;5030942;28;20251;-71
2021/08/10 10:02:37;;;;;;;2.77;2.57;;;20.70;99.90;;;;;;5031554;28;20301;-71
2021/08/10 10:05:05;;;;;;;3.93;2.37;;;20.80;99.90;;;;;;5031621;28;20296;-71
2021/08/10 10:07:31;;;;;;;3.83;2.63;;;20.80;99.90;;;;;;5031547;28;20263;-71
2021/08/10 10:09:58;;;;;;;2.87;2.60;;;20.80;99.90;;;;;;5031224;28;20205;-71
2021/08/10 10:12:26;;;;;;;4.57;2.50;;;20.90;99.90;;;;;;5030907;28;20241;-71
2021/08/10 10:14:58;;;;;;;3.00;2.47;;;20.90;99.90;;;;;;5031322;28;20216;-71
2021/08/10 10:17:30;;;;;;;4.50;2.50;;;20.90;99.90;;;;;;5031269;28;20711;-71
2021/08/10 10:19:57;;;;;;;2.70;2.40;;;20.90;99.90;;;;;;5031319;28;20197;-71
2021/08/10 10:22:28;;;;;;;2.57;2.33;;;21.00;99.90;;;;;;5029862;28;20757;-71
2021/08/10 10:24:57;;;;;;;2.53;2.20;;;20.90;99.90;;;;;;5030922;28;20570;-71
2021/08/10 10:27:24;;;;;;;3.23;2.70;;;20.90;99.90;;;;;;5030718;28;20201;-71
2021/08/10 10:29:54;;;;;;;2.87;2.60;;;20.90;99.90;;;;;;5030885;28;20664;-71
2021/08/10 10:32:22;;;;;;;2.90;2.57;;;20.90;99.90;;;;;;5030898;28;20243;-71
2021/08/10 10:34:50;;;;;;;2.80;2.53;;;20.90;99.90;;;;;;5030894;28;20288;-70
2021/08/10 10:37:20;;;;;;;3.47;2.30;;;20.90;99.90;;;;;;5030794;28;20204;-71
2021/08/10 10:39:49;;;;;;;4.20;2.50;;;20.90;99.90;;;;;;5030841;28;20239;-71
2021/08/10 10:42:16;;;;;;;2.63;2.43;;;20.80;99.90;;;;;;5030516;28;20255;-70
2021/08/10 10:44:45;;;;;;;3.80;2.97;;;20.70;99.90;;;;;;5030688;28;20258;-71
2021/08/10 10:47:41;;;;;;;5.73;2.43;;;20.60;99.90;;;;;;5030600;28;20212;-71
2021/08/10 10:50:14;;;;;;;3.73;2.27;;;20.60;99.90;;;;;;5030688;28;20288;-71
2021/08/10 10:52:57;;;;;;;4.53;2.30;;;20.60;99.90;;;;;;5030462;28;20271;-71
2021/08/10 10:55:32;;;;;;;5.70;2.57;;;20.60;99.90;;;;;;5030648;28;20213;-71
2021/08/10 10:57:59;;;;;;;2.40;2.10;;;20.50;99.90;;;;;;5030352;28;20189;-71
2021/08/10 11:00:27;;;;;;;4.30;2.60;;;20.50;99.90;;;;;;5029624;28;20739;-71
2021/08/10 11:03:11;;;;;;;3.30;2.30;;;20.50;99.90;;;;;;5030423;28;20213;-71
2021/08/10 11:05:39;;;;;;;3.47;2.23;;;20.40;99.90;;;;;;5030286;28;20208;-71
2021/08/10 11:08:07;;;;;;;2.43;2.23;;;20.50;99.90;;;;;;5030415;28;20213;-71
2021/08/10 11:10:47;;;;;;;3.33;2.30;;;20.50;99.90;;;;;;5030399;28;20201;-71
2021/08/10 11:13:39;;;;;;;3.23;2.40;;;20.60;99.90;;;;;;5030122;28;20221;-71
2021/08/10 11:16:06;;;;;;;3.93;2.93;;;20.80;99.90;;;;;;5030028;28;20225;-71
2021/08/10 11:18:33;;;;;;;3.23;2.40;;;20.90;99.90;;;;;;5029919;28;20328;-71
2021/08/10 11:21:24;;;;;;;2.50;2.30;;;21.20;99.90;;;;;;5030047;28;20229;-71
2021/08/10 11:23:52;;;;;;;5.60;2.60;;;21.40;99.90;;;;;;5029890;28;20316;-71
2021/08/10 11:26:41;;;;;;;3.73;2.40;;;21.70;99.90;;;;;;5029905;28;20254;-71
2021/08/10 11:29:10;;;;;;;4.77;2.67;;;22.00;99.90;;;;;;5029731;28;20201;-71
2021/08/10 11:31:41;;;;;;;3.70;2.87;;;22.10;99.90;;;;;;5029688;28;20761;-71
2021/08/10 11:34:39;;;;;;;2.70;2.50;;;22.20;99.90;;;;;;5029929;28;20197;-71
2021/08/10 11:37:22;;;;;;;2.78;2.47;;;22.20;99.90;;;;;;5029843;28;20247;-71
2021/08/10 11:40:12;;;;;;;2.20;2.00;;;22.20;99.90;;;;;;5029812;28;20204;-71
2021/08/10 11:42:52;;;;;;;1.80;1.70;;;22.30;99.90;;;;;;5029065;28;20647;-71
2021/08/10 11:45:19;;;;;;;2.20;2.00;;;22.50;99.90;;;;;;5029651;28;20270;-71
2021/08/10 11:47:57;;;;;;;4.35;2.25;;;22.60;99.90;;;;;;5029627;28;20209;-71
2021/08/10 11:50:27;;;;;;;2.13;2.03;;;22.60;99.90;;;;;;5029725;28;20197;-71
2021/08/10 11:52:55;;;;;;;2.55;1.80;;;22.50;99.90;;;;;;5029544;28;20267;-71
2021/08/10 11:55:29;;;;;;;3.23;1.80;;;22.40;99.90;;;;;;5029393;28;20271;-71
2021/08/10 11:57:58;;;;;;;1.83;1.73;;;22.30;99.90;;;;;;5029328;28;20201;-71
2021/08/10 12:00:26;;;;;;;2.00;1.73;;;22.30;99.90;;;;;;5029269;28;20229;-71
2021/08/10 12:02:53;;;;;;;2.50;1.98;;;22.30;99.90;;;;;;5029230;28;20683;-71
2021/08/10 12:05:21;;;;;;;2.90;2.05;;;22.30;99.90;;;;;;5029053;28;20209;-71
2021/08/10 12:07:49;;;;;;;3.83;2.10;;;22.30;99.90;;;;;;5029360;28;20205;-71
2021/08/10 12:10:23;;;;;;;5.43;2.00;;;22.30;99.90;;;;;;5028736;28;20664;-71
2021/08/10 12:12:49;;;;;;;2.40;1.93;;;22.40;99.90;;;;;;5028078;28;20809;-71
2021/08/10 12:15:34;;;;;;;1.73;1.63;;;22.80;99.90;;;;;;5028993;28;20205;-71
2021/08/10 12:18:01;;;;;;;3.35;1.80;;;23.10;99.90;;;;;;5029098;28;20674;-71
2021/08/10 12:20:28;;;;;;;2.72;2.13;;;23.40;99.90;;;;;;5028547;28;20758;-71
2021/08/10 12:23:00;;;;;;;1.60;1.50;;;23.60;99.90;;;;;;5028964;28;20255;-71
2021/08/10 12:25:28;;;;;;;2.35;2.15;;;23.60;99.90;;;;;;5028820;28;20257;-69
2021/08/10 12:28:01;;;;;;;2.58;1.98;;;23.80;99.90;;;;;;5028851;28;20258;-69
2021/08/10 12:30:29;;;;;;;2.03;1.92;;;23.70;99.90;;;;;;5028652;28;20199;-70
2021/08/10 12:33:13;;;;;;;3.30;2.03;;;23.50;99.90;;;;;;5028769;28;20233;-70
2021/08/10 12:35:40;;;;;;;3.55;2.30;;;23.40;99.90;;;;;;5028918;28;20200;-70
2021/08/10 12:38:07;;;;;;;2.55;1.80;;;23.30;99.90;;;;;;5028789;28;20200;-70
2021/08/10 12:40:35;;;;;;;2.38;1.77;;;23.40;99.90;;;;;;5028580;28;20568;-70
2021/08/10 12:43:03;;;;;;;2.20;2.00;;;23.60;99.90;;;;;;5028489;28;20204;-71
2021/08/10 12:45:31;;;;;;;3.38;2.10;;;23.80;99.90;;;;;;5028486;28;20201;-71
2021/08/10 12:47:58;;;;;;;2.28;1.52;;;24.10;99.90;;;;;;5028524;28;20208;-71
2021/08/10 12:50:26;;;;;;;2.28;1.73;;;24.40;99.90;;;;;;5028362;28;20521;-71
2021/08/10 12:52:53;;;;;;;2.03;1.55;;;24.40;99.90;;;;;;5028616;28;20244;-71
2021/08/10 12:55:20;;;;;;;1.75;1.65;;;24.60;99.90;;;;;;5028481;28;20231;-71
2021/08/10 12:57:58;;;;;;;3.00;1.65;;;24.70;99.90;;;;;;5028375;28;20205;-71